createdAt,value
2022-07-28T00:00:51.922Z,31.03
2022-07-28T00:03:20.677Z,31.33
2022-07-28T00:05:49.944Z,28.60
2022-07-28T00:08:19.165Z,31.07
2022-07-28T00:10:49.306Z,37.23
2022-07-28T00:13:18.062Z,40.17
2022-07-28T00:15:46.860Z,38.00
2022-07-28T00:18:15.684Z,37.20
2022-07-28T00:20:44.592Z,37.20
2022-07-28T00:23:13.373Z,41.40
2022-07-28T00:25:42.050Z,44.00
2022-07-28T00:28:12.277Z,36.10
2022-07-28T00:30:41.084Z,51.77
2022-07-28T00:33:10.400Z,65.00
2022-07-28T00:35:39.242Z,46.97
2022-07-28T00:38:08.115Z,62.37
2022-07-28T00:40:57.876Z,72.03
2022-07-28T00:43:28.088Z,70.50
2022-07-28T00:45:56.874Z,44.77
2022-07-28T00:48:25.573Z,39.37
2022-07-28T00:50:54.659Z,36.83
2022-07-28T00:53:24.442Z,25.53
2022-07-28T00:56:03.481Z,34.53
2022-07-28T00:58:38.590Z,44.80
2022-07-28T01:01:07.959Z,96.23
2022-07-28T01:03:40.629Z,138.13
2022-07-28T01:06:17.860Z,332.77
2022-07-28T01:08:59.607Z,152.30
2022-07-28T01:11:41.617Z,59.33
2022-07-28T01:14:21.812Z,35.10
2022-07-28T01:16:55.897Z,114.03
2022-07-28T01:19:38.611Z,7.50
2022-07-28T01:22:11.065Z,9.17
2022-07-28T01:24:56.566Z,15.73
2022-07-28T01:27:37.786Z,13.07
2022-07-28T01:30:12.561Z,291.93
2022-07-28T01:32:46.643Z,10.30
2022-07-28T01:35:21.355Z,7.97
2022-07-28T01:37:55.666Z,11.93
2022-07-28T01:40:27.012Z,77.53
2022-07-28T01:42:59.719Z,8.93
2022-07-28T01:45:29.294Z,7.87
2022-07-28T01:48:02.943Z,6.53
2022-07-28T01:50:33.029Z,8.90
2022-07-28T01:53:02.694Z,8.77
2022-07-28T01:55:33.064Z,8.23
2022-07-28T01:58:03.219Z,8.00
2022-07-28T02:00:33.608Z,9.67
2022-07-28T02:03:07.656Z,6.97
2022-07-28T02:05:38.185Z,6.93
2022-07-28T02:08:08.649Z,7.10
2022-07-28T02:10:38.798Z,8.40
2022-07-28T02:13:08.766Z,8.13
2022-07-28T02:15:39.437Z,8.23
2022-07-28T02:18:11.319Z,11.33
2022-07-28T02:20:42.411Z,6.90
2022-07-28T02:23:14.990Z,8.70
2022-07-28T02:25:44.097Z,8.90
2022-07-28T02:28:13.680Z,9.80
2022-07-28T02:30:52.002Z,8.07
2022-07-28T02:33:58.347Z,8.43
2022-07-28T02:36:22.350Z,8.17
2022-07-28T02:38:56.022Z,9.17
2022-07-28T02:41:28.740Z,8.80
2022-07-28T02:44:02.135Z,8.17
2022-07-28T02:46:44.562Z,8.03
2022-07-28T02:49:19.559Z,8.57
2022-07-28T02:51:49.949Z,9.17
2022-07-28T02:54:21.239Z,8.20
2022-07-28T02:56:53.824Z,8.20
2022-07-28T02:59:23.590Z,8.13
2022-07-28T03:01:53.649Z,7.40
2022-07-28T03:04:39.684Z,8.57
2022-07-28T03:07:08.816Z,6.73
2022-07-28T03:09:41.946Z,6.90
2022-07-28T03:12:11.185Z,6.17
2022-07-28T03:14:40.360Z,7.00
2022-07-28T03:17:09.561Z,8.03
2022-07-28T03:19:39.964Z,7.57
2022-07-28T03:22:10.449Z,7.70
2022-07-28T03:24:41.667Z,10.87
2022-07-28T03:27:18.083Z,10.13
2022-07-28T03:29:51.204Z,11.03
2022-07-28T03:32:22.103Z,10.90
2022-07-28T03:34:52.919Z,10.67
2022-07-28T03:37:27.287Z,9.63
2022-07-28T03:39:59.150Z,9.73
2022-07-28T03:42:29.350Z,10.67
2022-07-28T03:44:58.665Z,9.40
2022-07-28T03:47:27.466Z,7.50
2022-07-28T03:49:57.871Z,9.30
2022-07-28T03:52:26.861Z,8.93
2022-07-28T03:54:55.607Z,9.37
2022-07-28T03:57:24.709Z,10.73
2022-07-28T03:59:53.398Z,10.30
2022-07-28T04:02:22.332Z,11.33
2022-07-28T04:04:51.523Z,9.37
2022-07-28T04:07:21.666Z,12.47
2022-07-28T04:09:50.327Z,14.48
2022-07-28T04:12:19.114Z,11.50
2022-07-28T04:14:47.879Z,10.50
2022-07-28T04:17:16.784Z,9.70
2022-07-28T04:19:45.392Z,8.10
2022-07-28T04:22:14.088Z,7.10
2022-07-28T04:24:44.308Z,7.93
2022-07-28T04:27:13.129Z,12.05
2022-07-28T04:29:41.743Z,13.00
2022-07-28T04:32:10.409Z,14.07
2022-07-28T04:34:39.031Z,11.30
2022-07-28T04:37:09.035Z,16.55
2022-07-28T04:39:37.658Z,20.05
2022-07-28T04:42:09.716Z,18.88
2022-07-28T04:44:42.619Z,18.83
2022-07-28T04:47:12.214Z,16.75
2022-07-28T04:49:40.941Z,14.20
2022-07-28T04:52:09.741Z,12.38
2022-07-28T04:54:38.686Z,10.18
2022-07-28T04:57:11.440Z,237.88
2022-07-28T04:59:41.765Z,10.55
2022-07-28T05:02:10.775Z,12.68
2022-07-28T05:04:39.982Z,13.98
2022-07-28T05:07:12.812Z,15.23
2022-07-28T05:09:42.035Z,13.77
2022-07-28T05:12:13.639Z,15.52
2022-07-28T05:14:42.565Z,14.55
2022-07-28T05:17:11.449Z,354.88
2022-07-28T05:19:42.338Z,16.23
2022-07-28T05:22:11.361Z,14.50
2022-07-28T05:24:40.317Z,9.93
2022-07-28T05:27:09.219Z,11.30
2022-07-28T05:29:47.475Z,10.80
2022-07-28T05:32:18.158Z,9.90
2022-07-28T05:34:47.054Z,9.68
2022-07-28T05:37:15.868Z,9.50
2022-07-28T05:39:44.697Z,9.50
2022-07-28T05:42:13.566Z,11.57
2022-07-28T05:44:44.028Z,10.05
2022-07-28T05:47:12.889Z,13.18
2022-07-28T05:49:41.559Z,8.52
2022-07-28T05:52:10.194Z,11.00
2022-07-28T05:54:38.890Z,10.70
2022-07-28T05:57:07.545Z,12.63
2022-07-28T05:59:45.590Z,13.43
2022-07-28T06:02:14.400Z,13.57
2022-07-28T06:04:46.645Z,12.13
2022-07-28T06:07:18.543Z,13.98
2022-07-28T06:09:47.486Z,16.75
2022-07-28T06:12:16.258Z,13.15
2022-07-28T06:14:46.584Z,11.90
2022-07-28T06:17:16.366Z,15.18
2022-07-28T06:19:45.420Z,10.35
2022-07-28T06:22:15.875Z,11.57
2022-07-28T06:24:44.664Z,10.32
2022-07-28T06:27:13.449Z,13.73
2022-07-28T06:29:42.149Z,11.02
2022-07-28T06:32:12.532Z,13.82
2022-07-28T06:34:41.494Z,14.95
2022-07-28T06:37:10.310Z,16.42
2022-07-28T06:39:38.898Z,17.48
2022-07-28T06:42:08.035Z,16.83
2022-07-28T06:44:57.416Z,17.33
2022-07-28T06:47:27.188Z,17.60
2022-07-28T06:49:56.046Z,15.48
2022-07-28T06:52:24.829Z,16.08
2022-07-28T06:54:57.431Z,19.35
2022-07-28T06:57:33.244Z,20.67
2022-07-28T07:00:04.457Z,18.30
2022-07-28T07:02:35.704Z,15.52
2022-07-28T07:05:04.384Z,10.70
2022-07-28T07:07:33.270Z,15.20
2022-07-28T07:10:01.854Z,18.95
2022-07-28T07:12:30.651Z,19.58
2022-07-28T07:14:59.693Z,9.73
2022-07-28T07:17:28.554Z,10.00
2022-07-28T07:19:58.738Z,10.55
2022-07-28T07:22:27.477Z,14.82
2022-07-28T07:24:57.596Z,10.77
2022-07-28T07:27:30.730Z,10.00
2022-07-28T07:30:00.007Z,11.48
2022-07-28T07:32:32.759Z,11.68
2022-07-28T07:35:03.138Z,8.57
2022-07-28T07:37:32.732Z,14.32
2022-07-28T07:40:01.602Z,9.20
2022-07-28T07:42:33.159Z,6.43
2022-07-28T07:45:02.184Z,6.53
2022-07-28T07:47:31.661Z,8.38
2022-07-28T07:50:04.287Z,9.00
2022-07-28T07:52:33.808Z,10.85
2022-07-28T07:55:02.581Z,8.70
2022-07-28T07:57:31.306Z,8.48
2022-07-28T08:00:01.257Z,8.23
2022-07-28T08:02:30.017Z,9.32
2022-07-28T08:04:58.918Z,7.95
2022-07-28T08:07:29.174Z,8.40
2022-07-28T08:09:58.158Z,8.45
2022-07-28T08:12:26.957Z,9.10
2022-07-28T08:14:56.451Z,9.75
2022-07-28T08:17:26.338Z,9.50
2022-07-28T08:19:55.658Z,7.88
2022-07-28T08:22:30.975Z,8.17
2022-07-28T08:25:04.370Z,8.23
2022-07-28T08:27:33.153Z,10.77
2022-07-28T08:30:06.532Z,10.07
2022-07-28T08:32:35.357Z,10.55
2022-07-28T08:35:31.923Z,9.02
2022-07-28T08:37:54.193Z,12.10
2022-07-28T08:40:27.618Z,12.10
2022-07-28T08:43:03.221Z,10.50
2022-07-28T08:45:37.122Z,10.05
2022-07-28T08:48:09.115Z,11.40
2022-07-28T08:50:42.508Z,12.68
2022-07-28T08:53:12.117Z,13.70
2022-07-28T08:55:42.732Z,11.90
2022-07-28T08:58:14.338Z,12.93
2022-07-28T09:00:43.641Z,15.40
2022-07-28T09:03:14.407Z,13.82
2022-07-28T09:05:44.791Z,20.63
2022-07-28T09:08:14.121Z,17.65
2022-07-28T09:10:44.337Z,15.00
2022-07-28T09:13:13.661Z,17.02
2022-07-28T09:15:46.693Z,17.52
2022-07-28T09:18:16.272Z,18.17
2022-07-28T09:20:48.369Z,17.10
2022-07-28T09:23:42.727Z,15.65
2022-07-28T09:26:15.874Z,15.98
2022-07-28T09:28:53.807Z,22.10
2022-07-28T09:31:23.970Z,24.73
2022-07-28T09:34:01.804Z,28.08
2022-07-28T09:36:39.096Z,32.38
2022-07-28T09:39:08.431Z,32.08
2022-07-28T09:41:50.207Z,41.95
2022-07-28T09:44:24.982Z,38.10
2022-07-28T09:46:53.949Z,35.03
2022-07-28T09:49:28.263Z,37.72
2022-07-28T09:52:06.140Z,166.65
2022-07-28T09:54:40.275Z,31.70
2022-07-28T09:57:13.806Z,29.67
2022-07-28T09:59:45.403Z,35.67
2022-07-28T10:02:26.512Z,37.85
2022-07-28T10:04:58.398Z,33.30
2022-07-28T10:07:29.559Z,33.88
2022-07-28T10:09:59.833Z,28.95
2022-07-28T10:12:32.068Z,30.27
2022-07-28T10:15:33.021Z,44.67
2022-07-28T10:18:02.026Z,34.55
2022-07-28T10:20:33.595Z,36.35
2022-07-28T10:23:05.951Z,46.83
2022-07-28T10:25:36.166Z,40.35
2022-07-28T10:28:09.770Z,44.60
2022-07-28T10:30:43.259Z,37.30
2022-07-28T10:33:20.732Z,33.75
2022-07-28T10:35:55.871Z,37.83
2022-07-28T10:38:30.117Z,39.28
2022-07-28T10:41:06.024Z,30.00
2022-07-28T10:43:42.794Z,44.53
2022-07-28T10:46:17.999Z,32.92
2022-07-28T10:48:50.136Z,42.88
2022-07-28T10:51:21.137Z,37.15
2022-07-28T10:53:59.205Z,47.92
2022-07-28T10:56:39.275Z,54.50
2022-07-28T10:59:32.291Z,48.58
2022-07-28T11:02:02.046Z,63.97
2022-07-28T11:05:04.234Z,149.82
2022-07-28T11:07:43.537Z,43.28
2022-07-28T11:10:21.628Z,30.80
2022-07-28T11:12:52.879Z,32.45
2022-07-28T11:15:36.852Z,56.38
2022-07-28T11:18:13.847Z,79.28
2022-07-28T11:21:10.104Z,169.20
2022-07-28T11:24:01.851Z,339.85
2022-07-28T11:26:41.512Z,159.02
2022-07-28T11:29:24.742Z,152.38
2022-07-28T11:32:11.832Z,285.52
2022-07-28T11:35:16.324Z,194.35
2022-07-28T11:38:12.556Z,339.83
2022-07-28T11:40:45.519Z,426.15
2022-07-28T11:43:40.743Z,397.10
2022-07-28T11:46:38.451Z,155.95
2022-07-28T11:49:28.250Z,394.98
2022-07-28T11:52:34.170Z,443.38
2022-07-28T11:55:06.522Z,396.10
2022-07-28T11:57:53.805Z,436.48
2022-07-28T12:00:26.389Z,442.65
2022-07-28T12:03:08.870Z,150.05
2022-07-28T12:05:42.044Z,307.80
2022-07-28T12:08:12.080Z,445.40
2022-07-28T12:10:54.430Z,420.83
2022-07-28T12:13:30.314Z,387.35
2022-07-28T12:16:00.302Z,386.95
2022-07-28T12:18:29.440Z,376.08
2022-07-28T12:21:05.066Z,341.58
2022-07-28T12:23:39.035Z,321.75
2022-07-28T12:26:29.704Z,359.15
2022-07-28T12:29:01.076Z,349.77
2022-07-28T12:31:33.369Z,318.77
2022-07-28T12:34:02.375Z,351.63
2022-07-28T12:36:32.568Z,332.05
2022-07-28T12:39:01.975Z,374.70
2022-07-28T12:41:34.684Z,223.45
2022-07-28T12:44:05.506Z,317.58
2022-07-28T12:46:35.042Z,319.60
2022-07-28T12:49:04.042Z,289.75
2022-07-28T12:51:39.237Z,276.88
2022-07-28T12:54:10.459Z,211.18
2022-07-28T12:56:49.103Z,262.90
2022-07-28T12:59:19.932Z,270.60
2022-07-28T13:01:53.618Z,234.55
2022-07-28T13:04:41.831Z,232.02
2022-07-28T13:07:15.085Z,231.80
2022-07-28T13:09:59.951Z,236.10
2022-07-28T13:12:31.399Z,218.10
2022-07-28T13:15:01.504Z,216.93
2022-07-28T13:17:49.222Z,211.32
2022-07-28T13:20:18.344Z,234.30
2022-07-28T13:22:48.591Z,265.35
2022-07-28T13:25:17.405Z,253.63
2022-07-28T13:27:48.538Z,271.88
2022-07-28T13:30:21.380Z,237.85
2022-07-28T13:32:51.375Z,259.80
2022-07-28T13:35:21.058Z,311.92
2022-07-28T13:37:51.582Z,284.67
2022-07-28T13:40:20.241Z,265.45
2022-07-28T13:42:52.961Z,290.67
2022-07-28T13:45:25.014Z,247.57
2022-07-28T13:47:58.692Z,275.05
2022-07-28T13:50:27.913Z,282.35
2022-07-28T13:52:58.056Z,268.77
2022-07-28T13:55:27.789Z,302.73
2022-07-28T13:57:56.771Z,293.75
2022-07-28T14:00:25.751Z,247.82
2022-07-28T14:02:54.838Z,266.23
2022-07-28T14:05:23.669Z,250.90
2022-07-28T14:07:52.880Z,238.05
2022-07-28T14:10:26.808Z,278.48
2022-07-28T14:12:56.522Z,241.80
2022-07-28T14:15:25.307Z,210.98
2022-07-28T14:17:54.154Z,231.40
2022-07-28T14:20:22.867Z,238.15
2022-07-28T14:22:53.296Z,228.45
2022-07-28T14:25:23.563Z,256.42
2022-07-28T14:27:52.888Z,215.07
2022-07-28T14:30:22.241Z,233.82
2022-07-28T14:32:51.277Z,243.70
2022-07-28T14:35:20.655Z,248.20
2022-07-28T14:38:49.665Z,221.52
2022-07-28T14:40:40.289Z,250.02
2022-07-28T14:43:09.545Z,248.18
2022-07-28T14:46:00.504Z,261.13
2022-07-28T14:48:27.940Z,278.70
2022-07-28T14:50:57.443Z,410.92
2022-07-28T14:53:28.109Z,270.38
2022-07-28T14:55:58.517Z,276.60
2022-07-28T14:58:27.320Z,267.80
2022-07-28T15:00:56.139Z,300.25
2022-07-28T15:03:27.055Z,262.77
2022-07-28T15:05:55.712Z,266.35
2022-07-28T15:08:28.840Z,523.60
2022-07-28T15:10:59.879Z,330.50
2022-07-28T15:13:28.766Z,268.58
2022-07-28T15:16:00.179Z,277.63
2022-07-28T15:18:29.411Z,276.65
2022-07-28T15:21:00.430Z,254.35
2022-07-28T15:23:29.196Z,260.60
2022-07-28T15:25:59.430Z,264.33
2022-07-28T15:28:29.042Z,300.70
2022-07-28T15:30:57.976Z,283.35
2022-07-28T15:33:26.931Z,292.77
2022-07-28T15:35:58.092Z,266.77
2022-07-28T15:38:29.575Z,249.50
2022-07-28T15:41:02.453Z,259.27
2022-07-28T15:43:33.263Z,273.70
2022-07-28T15:46:08.955Z,400.98
2022-07-28T15:48:38.232Z,448.50
2022-07-28T15:51:07.045Z,292.33
2022-07-28T15:53:36.197Z,271.20
2022-07-28T15:56:07.113Z,263.52
2022-07-28T15:58:35.942Z,259.50
2022-07-28T16:01:05.104Z,243.20
2022-07-28T16:03:34.313Z,245.32
2022-07-28T16:06:03.351Z,239.18
2022-07-28T16:08:32.426Z,234.32
2022-07-28T16:11:01.111Z,267.00
2022-07-28T16:13:37.139Z,231.73
2022-07-28T16:16:08.866Z,300.65
2022-07-28T16:18:38.771Z,364.02
2022-07-28T16:21:09.130Z,254.13
2022-07-28T16:23:38.066Z,230.38
2022-07-28T16:26:10.601Z,225.10
2022-07-28T16:28:47.897Z,223.95
2022-07-28T16:31:18.766Z,223.05
2022-07-28T16:33:49.478Z,224.77
2022-07-28T16:36:20.241Z,271.20
2022-07-28T16:38:51.874Z,269.60
2022-07-28T16:41:23.047Z,272.52
2022-07-28T16:44:15.688Z,248.02
2022-07-28T16:46:48.250Z,216.85
2022-07-28T16:49:18.353Z,214.48
2022-07-28T16:51:52.644Z,216.25
2022-07-28T16:54:30.352Z,267.75
2022-07-28T16:57:00.168Z,227.65
2022-07-28T16:59:37.041Z,258.27
2022-07-28T17:02:16.742Z,241.25
2022-07-28T17:04:50.555Z,196.43
2022-07-28T17:07:20.032Z,196.30
2022-07-28T17:09:48.760Z,205.25
2022-07-28T17:12:17.597Z,208.32
2022-07-28T17:14:47.724Z,211.32
2022-07-28T17:17:16.679Z,204.30
2022-07-28T17:19:47.016Z,199.10
2022-07-28T17:22:16.576Z,174.63
2022-07-28T17:24:45.391Z,193.13
2022-07-28T17:30:04.365Z,184.07
2022-07-28T17:32:33.197Z,176.45
2022-07-28T17:35:02.058Z,173.32
2022-07-28T17:37:31.603Z,208.68
2022-07-28T17:40:01.235Z,210.88
2022-07-28T17:42:34.359Z,234.20
2022-07-28T17:45:04.502Z,284.17
2022-07-28T17:47:36.109Z,304.50
2022-07-28T17:50:07.519Z,344.90
2022-07-28T17:52:36.300Z,378.55
2022-07-28T17:55:23.515Z,403.95
2022-07-28T17:57:52.993Z,394.65
2022-07-28T18:00:24.283Z,276.98
2022-07-28T18:02:53.456Z,225.65
2022-07-28T18:05:22.469Z,122.93
2022-07-28T18:07:53.686Z,72.68
2022-07-28T18:10:27.130Z,45.67
2022-07-28T18:12:56.192Z,55.78
2022-07-28T18:15:27.867Z,36.38
2022-07-28T18:18:00.091Z,43.05
2022-07-28T18:20:29.150Z,35.35
2022-07-28T18:22:58.804Z,36.72
2022-07-28T18:25:29.242Z,46.03
2022-07-28T18:27:58.680Z,42.85
2022-07-28T18:30:29.577Z,37.63
2022-07-28T18:32:58.242Z,37.45
2022-07-28T18:35:27.263Z,32.17
2022-07-28T18:37:56.020Z,30.92
2022-07-28T18:40:24.995Z,30.05
2022-07-28T18:42:54.532Z,19.45
2022-07-28T18:45:24.824Z,19.65
2022-07-28T18:47:58.972Z,18.90
2022-07-28T18:50:31.637Z,16.42
2022-07-28T18:53:01.460Z,18.05
2022-07-28T18:55:30.124Z,16.95
2022-07-28T18:57:58.926Z,17.23
2022-07-28T19:00:27.653Z,19.42
2022-07-28T19:02:58.091Z,19.25
2022-07-28T19:05:27.634Z,17.88
2022-07-28T19:08:06.185Z,19.38
2022-07-28T19:10:35.437Z,19.13
2022-07-28T19:13:04.650Z,19.25
2022-07-28T19:15:42.486Z,18.05
2022-07-28T19:18:12.890Z,17.80
2022-07-28T19:20:42.624Z,18.90
2022-07-28T19:23:11.262Z,22.52
2022-07-28T19:25:40.602Z,23.30
2022-07-28T19:28:09.951Z,27.17
2022-07-28T19:30:38.733Z,25.13
2022-07-28T19:33:07.646Z,17.80
2022-07-28T19:35:46.144Z,16.90
2022-07-28T19:38:17.498Z,17.23
2022-07-28T19:40:46.390Z,20.63
2022-07-28T19:43:15.120Z,19.38
2022-07-28T19:45:47.413Z,17.02
2022-07-28T19:48:16.236Z,16.85
2022-07-28T19:50:50.304Z,19.13
2022-07-28T19:53:20.542Z,390.40
2022-07-28T19:55:54.141Z,29.27
2022-07-28T19:58:22.918Z,27.98
2022-07-28T20:00:54.099Z,23.25
2022-07-28T20:04:02.669Z,22.33
2022-07-28T20:06:15.874Z,179.70
2022-07-28T20:08:44.771Z,70.32
2022-07-28T20:11:14.909Z,51.65
2022-07-28T20:13:43.779Z,50.97
2022-07-28T20:16:12.704Z,60.20
2022-07-28T20:18:41.594Z,36.55
2022-07-28T20:21:10.751Z,40.17
2022-07-28T20:23:41.206Z,33.53
2022-07-28T20:26:10.488Z,37.38
2022-07-28T20:28:39.527Z,46.10
2022-07-28T20:31:12.375Z,43.47
2022-07-28T20:33:43.814Z,49.95
2022-07-28T20:36:12.563Z,76.47
2022-07-28T20:38:42.965Z,206.27
2022-07-28T20:41:11.700Z,321.55
2022-07-28T20:43:40.451Z,74.68
2022-07-28T20:46:09.284Z,441.08
2022-07-28T20:48:38.983Z,137.25
2022-07-28T20:51:08.976Z,130.45
2022-07-28T20:53:37.642Z,214.80
2022-07-28T20:56:07.968Z,217.70
2022-07-28T20:58:36.840Z,395.85
2022-07-28T21:01:05.827Z,399.50
2022-07-28T21:03:34.584Z,290.02
2022-07-28T21:06:03.239Z,360.38
2022-07-28T21:08:32.762Z,393.90
2022-07-28T21:11:01.731Z,124.60
2022-07-28T21:13:32.032Z,74.00
2022-07-28T21:16:01.022Z,49.60
2022-07-28T21:18:29.944Z,163.65
2022-07-28T21:20:59.723Z,114.47
2022-07-28T21:23:28.408Z,108.93
2022-07-28T21:25:57.191Z,82.72
2022-07-28T21:28:43.157Z,63.80
2022-07-28T21:31:13.909Z,55.08
2022-07-28T21:33:42.917Z,59.13
2022-07-28T21:36:11.764Z,58.83
2022-07-28T21:38:41.998Z,66.30
2022-07-28T21:41:10.962Z,73.28
2022-07-28T21:43:40.060Z,87.97
2022-07-28T21:46:12.079Z,165.57
2022-07-28T21:48:42.621Z,183.77
2022-07-28T21:51:19.402Z,266.05
2022-07-28T21:53:50.950Z,344.10
2022-07-28T21:56:20.027Z,525.77
2022-07-28T21:58:48.822Z,399.13
2022-07-28T22:01:18.206Z,25.25
2022-07-28T22:03:48.569Z,15.30
2022-07-28T22:06:17.460Z,15.05
2022-07-28T22:08:46.257Z,12.75
2022-07-28T22:11:15.492Z,12.68
2022-07-28T22:13:44.341Z,12.45
2022-07-28T22:16:13.287Z,14.27
2022-07-28T22:18:42.004Z,13.90
2022-07-28T22:21:12.214Z,12.98
2022-07-28T22:23:42.553Z,16.02
2022-07-28T22:26:11.211Z,16.77
2022-07-28T22:28:39.875Z,23.73
2022-07-28T22:31:10.495Z,20.13
2022-07-28T22:33:40.153Z,16.45
2022-07-28T22:36:10.505Z,14.55
2022-07-28T22:38:40.813Z,16.83
2022-07-28T22:41:09.794Z,14.15
2022-07-28T22:43:38.962Z,10.23
2022-07-28T22:46:07.680Z,9.65
2022-07-28T22:48:36.474Z,10.88
2022-07-28T22:51:05.346Z,9.82
2022-07-28T22:53:33.988Z,10.73
2022-07-28T22:56:57.637Z,10.43
2022-07-28T22:59:27.841Z,9.15
2022-07-28T23:02:01.046Z,10.00
2022-07-28T23:04:29.757Z,10.27
2022-07-28T23:06:58.846Z,9.07
2022-07-28T23:09:29.281Z,10.00
2022-07-28T23:11:58.364Z,8.05
2022-07-28T23:14:28.661Z,8.15
2022-07-28T23:16:58.100Z,9.95
2022-07-28T23:19:26.938Z,10.38
2022-07-28T23:21:55.882Z,10.00
2022-07-28T23:24:25.499Z,10.55
2022-07-28T23:26:54.309Z,9.50
2022-07-28T23:29:23.228Z,11.20
2022-07-28T23:31:54.904Z,11.05
2022-07-28T23:34:23.604Z,9.90
2022-07-28T23:36:52.399Z,11.15
2022-07-28T23:39:21.102Z,10.02
2022-07-28T23:41:49.909Z,9.63
2022-07-28T23:44:19.970Z,9.77
2022-07-28T23:46:48.874Z,10.52
2022-07-28T23:49:19.388Z,8.75
2022-07-28T23:51:48.948Z,8.23
2022-07-28T23:54:19.720Z,11.27
2022-07-28T23:56:52.583Z,9.80
2022-07-28T23:59:21.241Z,8.15
